sensor_id;sensor_type;location;lat;lon;timestamp;pressure;altitude;pressure_sealevel;temperature;humidity
54361;BME280;40258;53.936;27.540;2022-09-09T00:00:29;100015.56;;;6.25;89.61
54361;BME280;40258;53.936;27.540;2022-09-09T00:03:05;100010.97;;;6.25;89.26
54361;BME280;40258;53.936;27.540;2022-09-09T00:05:43;100016.63;;;6.24;89.60
54361;BME280;40258;53.936;27.540;2022-09-09T00:08:19;100024.75;;;6.19;89.84
54361;BME280;40258;53.936;27.540;2022-09-09T00:10:54;100014.22;;;6.17;89.58
54361;BME280;40258;53.936;27.540;2022-09-09T00:13:32;100011.81;;;6.16;89.67
54361;BME280;40258;53.936;27.540;2022-09-09T00:16:08;100016.09;;;6.11;90.17
54361;BME280;40258;53.936;27.540;2022-09-09T00:18:51;100018.53;;;6.08;90.43
54361;BME280;40258;53.936;27.540;2022-09-09T00:21:25;100012.06;;;6.04;90.15
54361;BME280;40258;53.936;27.540;2022-09-09T00:23:58;100004.75;;;6.04;90.67
54361;BME280;40258;53.936;27.540;2022-09-09T00:26:35;100007.97;;;5.96;91.23
54361;BME280;40258;53.936;27.540;2022-09-09T00:29:14;100006.34;;;5.95;91.32
54361;BME280;40258;53.936;27.540;2022-09-09T00:31:48;100020.91;;;5.94;90.89
54361;BME280;40258;53.936;27.540;2022-09-09T00:34:21;100010.94;;;5.89;91.25
54361;BME280;40258;53.936;27.540;2022-09-09T00:36:52;100006.88;;;5.82;91.69
54361;BME280;40258;53.936;27.540;2022-09-09T00:39:31;100002.81;;;5.79;91.72
54361;BME280;40258;53.936;27.540;2022-09-09T00:42:14;100005.53;;;5.74;92.04
54361;BME280;40258;53.936;27.540;2022-09-09T00:44:55;100003.63;;;5.69;91.90
54361;BME280;40258;53.936;27.540;2022-09-09T00:47:45;99999.84;;;5.60;91.83
54361;BME280;40258;53.936;27.540;2022-09-09T00:50:38;100005.75;;;5.52;92.37
54361;BME280;40258;53.936;27.540;2022-09-09T00:53:31;100016.47;;;5.47;92.72
54361;BME280;40258;53.936;27.540;2022-09-09T00:56:12;100009.19;;;5.42;93.26
54361;BME280;40258;53.936;27.540;2022-09-09T00:58:43;100009.19;;;5.42;93.90
54361;BME280;40258;53.936;27.540;2022-09-09T01:01:19;100012.69;;;5.37;94.73
54361;BME280;40258;53.936;27.540;2022-09-09T01:03:52;100017.78;;;5.34;95.32
54361;BME280;40258;53.936;27.540;2022-09-09T01:06:27;100014.03;;;5.35;95.60
54361;BME280;40258;53.936;27.540;2022-09-09T01:09:11;100020.22;;;5.40;95.87
54361;BME280;40258;53.936;27.540;2022-09-09T01:11:57;100015.38;;;5.37;95.77
54361;BME280;40258;53.936;27.540;2022-09-09T01:14:41;100023.44;;;5.37;95.73
54361;BME280;40258;53.936;27.540;2022-09-09T01:17:17;100026.13;;;5.37;95.29
54361;BME280;40258;53.936;27.540;2022-09-09T01:20:04;100022.63;;;5.32;95.34
54361;BME280;40258;53.936;27.540;2022-09-09T01:22:58;100018.03;;;5.27;96.33
54361;BME280;40258;53.936;27.540;2022-09-09T01:26:32;100020.69;;;5.17;97.30
54361;BME280;40258;53.936;27.540;2022-09-09T01:29:08;100018.03;;;5.22;97.15
54361;BME280;40258;53.936;27.540;2022-09-09T01:31:42;100021.25;;;5.19;97.05
54361;BME280;40258;53.936;27.540;2022-09-09T01:34:22;100023.63;;;5.15;96.77
54361;BME280;40258;53.936;27.540;2022-09-09T01:36:58;100019.59;;;5.13;96.52
54361;BME280;40258;53.936;27.540;2022-09-09T01:39:29;100009.91;;;5.07;97.53
54361;BME280;40258;53.936;27.540;2022-09-09T01:42:06;100007.16;;;5.01;98.07
54361;BME280;40258;53.936;27.540;2022-09-09T01:44:38;99997.19;;;4.97;98.46
54361;BME280;40258;53.936;27.540;2022-09-09T01:47:07;99999.34;;;4.95;98.85
54361;BME280;40258;53.936;27.540;2022-09-09T01:49:44;100002.53;;;4.92;99.62
54361;BME280;40258;53.936;27.540;2022-09-09T01:52:21;99995.81;;;4.89;99.28
54361;BME280;40258;53.936;27.540;2022-09-09T01:54:51;99982.63;;;4.88;100.00
54361;BME280;40258;53.936;27.540;2022-09-09T01:57:28;99981.28;;;4.90;100.00
54361;BME280;40258;53.936;27.540;2022-09-09T02:00:05;99983.44;;;4.88;100.00
54361;BME280;40258;53.936;27.540;2022-09-09T02:02:52;99979.66;;;4.89;100.00
54361;BME280;40258;53.936;27.540;2022-09-09T02:05:38;99972.09;;;4.81;100.00
54361;BME280;40258;53.936;27.540;2022-09-09T02:08:18;99968.56;;;4.75;100.00
54361;BME280;40258;53.936;27.540;2022-09-09T02:10:59;99975.81;;;4.70;100.00
54361;BME280;40258;53.936;27.540;2022-09-09T02:13:39;99987.63;;;4.68;100.00
54361;BME280;40258;53.936;27.540;2022-09-09T02:16:16;99985.78;;;4.69;100.00
54361;BME280;40258;53.936;27.540;2022-09-09T02:18:50;99995.19;;;4.72;100.00
54361;BME280;40258;53.936;27.540;2022-09-09T02:21:25;99994.38;;;4.71;100.00
54361;BME280;40258;53.936;27.540;2022-09-09T02:23:59;100004.88;;;4.73;100.00
54361;BME280;40258;53.936;27.540;2022-09-09T02:26:34;99991.94;;;4.70;100.00
54361;BME280;40258;53.936;27.540;2022-09-09T02:29:11;99991.94;;;4.70;100.00
54361;BME280;40258;53.936;27.540;2022-09-09T02:31:42;99987.69;;;4.74;100.00
54361;BME280;40258;53.936;27.540;2022-09-09T02:34:19;99988.22;;;4.76;100.00
54361;BME280;40258;53.936;27.540;2022-09-09T02:36:52;99982.06;;;4.80;100.00
54361;BME280;40258;53.936;27.540;2022-09-09T02:39:22;99981.81;;;4.87;100.00
54361;BME280;40258;53.936;27.540;2022-09-09T02:41:52;99973.75;;;4.92;100.00
54361;BME280;40258;53.936;27.540;2022-09-09T02:44:30;99983.72;;;4.92;100.00
54361;BME280;40258;53.936;27.540;2022-09-09T02:47:30;99989.09;;;4.92;100.00
54361;BME280;40258;53.936;27.540;2022-09-09T02:50:13;99989.09;;;4.92;100.00
54361;BME280;40258;53.936;27.540;2022-09-09T02:52:54;100001.19;;;4.89;100.00
54361;BME280;40258;53.936;27.540;2022-09-09T02:55:37;99997.94;;;4.87;100.00
54361;BME280;40258;53.936;27.540;2022-09-09T02:58:09;99996.88;;;4.88;100.00
54361;BME280;40258;53.936;27.540;2022-09-09T03:00:41;99984.50;;;4.87;100.00
54361;BME280;40258;53.936;27.540;2022-09-09T03:03:10;99985.31;;;4.88;100.00
54361;BME280;40258;53.936;27.540;2022-09-09T03:05:39;99991.78;;;4.86;100.00
54361;BME280;40258;53.936;27.540;2022-09-09T03:08:08;99984.50;;;4.87;100.00
54361;BME280;40258;53.936;27.540;2022-09-09T03:10:37;99993.63;;;4.86;100.00
54361;BME280;40258;53.936;27.540;2022-09-09T03:13:07;99996.31;;;4.86;100.00
54361;BME280;40258;53.936;27.540;2022-09-09T03:15:41;99994.72;;;4.85;100.00
54361;BME280;40258;53.936;27.540;2022-09-09T03:18:14;99988.50;;;4.84;100.00
54361;BME280;40258;53.936;27.540;2022-09-09T03:20:47;99988.50;;;4.84;100.00
54361;BME280;40258;53.936;27.540;2022-09-09T03:23:16;99993.63;;;4.81;100.00
54361;BME280;40258;53.936;27.540;2022-09-09T03:25:49;100002.75;;;4.80;100.00
54361;BME280;40258;53.936;27.540;2022-09-09T03:28:22;100010.50;;;4.71;100.00
54361;BME280;40258;53.936;27.540;2022-09-09T03:31:00;100004.63;;;4.74;100.00
54361;BME280;40258;53.936;27.540;2022-09-09T03:33:33;100012.94;;;4.73;100.00
54361;BME280;40258;53.936;27.540;2022-09-09T03:36:04;100014.03;;;4.77;100.00
54361;BME280;40258;53.936;27.540;2022-09-09T03:38:35;100015.66;;;4.78;100.00
54361;BME280;40258;53.936;27.540;2022-09-09T03:41:04;100012.97;;;4.78;100.00
54361;BME280;40258;53.936;27.540;2022-09-09T03:43:34;100009.19;;;4.74;100.00
54361;BME280;40258;53.936;27.540;2022-09-09T03:46:05;100015.59;;;4.67;100.00
54361;BME280;40258;53.936;27.540;2022-09-09T03:48:33;100017.22;;;4.68;100.00
54361;BME280;40258;53.936;27.540;2022-09-09T03:51:04;100030.69;;;4.74;100.00
54361;BME280;40258;53.936;27.540;2022-09-09T03:53:34;100023.19;;;4.76;100.00
54361;BME280;40258;53.936;27.540;2022-09-09T03:56:05;100028.28;;;4.72;100.00
54361;BME280;40258;53.936;27.540;2022-09-09T03:58:35;100027.97;;;4.68;100.00
54361;BME280;40258;53.936;27.540;2022-09-09T04:01:11;100010.50;;;4.71;100.00
54361;BME280;40258;53.936;27.540;2022-09-09T04:03:42;100007.59;;;4.78;100.00
54361;BME280;40258;53.936;27.540;2022-09-09T04:06:13;100018.34;;;4.83;100.00
54361;BME280;40258;53.936;27.540;2022-09-09T04:08:45;100025.44;;;4.94;100.00
54361;BME280;40258;53.936;27.540;2022-09-09T04:11:16;100030.31;;;5.08;100.00
54361;BME280;40258;53.936;27.540;2022-09-09T04:13:47;100023.38;;;5.17;100.00
54361;BME280;40258;53.936;27.540;2022-09-09T04:16:17;100019.13;;;5.31;99.73
54361;BME280;40258;53.936;27.540;2022-09-09T04:18:47;100029.66;;;5.43;99.30
54361;BME280;40258;53.936;27.540;2022-09-09T04:21:17;100025.41;;;5.57;98.42
54361;BME280;40258;53.936;27.540;2022-09-09T04:23:46;100038.09;;;5.67;97.60
54361;BME280;40258;53.936;27.540;2022-09-09T04:26:15;100030.56;;;5.69;97.30
54361;BME280;40258;53.936;27.540;2022-09-09T04:28:45;100024.66;;;5.83;96.63
54361;BME280;40258;53.936;27.540;2022-09-09T04:31:21;100027.41;;;5.98;95.38
54361;BME280;40258;53.936;27.540;2022-09-09T04:33:53;100030.91;;;6.04;94.72
54361;BME280;40258;53.936;27.540;2022-09-09T04:36:22;100025.25;;;6.21;94.48
54361;BME280;40258;53.936;27.540;2022-09-09T04:38:55;100027.97;;;6.16;93.94
54361;BME280;40258;53.936;27.540;2022-09-09T04:41:23;100026.88;;;6.27;93.58
54361;BME280;40258;53.936;27.540;2022-09-09T04:43:54;100026.59;;;6.39;92.79
54361;BME280;40258;53.936;27.540;2022-09-09T04:46:24;100025.25;;;6.57;92.38
54361;BME280;40258;53.936;27.540;2022-09-09T04:48:53;100026.81;;;6.78;91.23
54361;BME280;40258;53.936;27.540;2022-09-09T04:51:23;100036.75;;;6.98;89.24
54361;BME280;40258;53.936;27.540;2022-09-09T04:53:53;100033.75;;;7.15;88.49
54361;BME280;40258;53.936;27.540;2022-09-09T04:56:21;100045.00;;;7.33;87.88
54361;BME280;40258;53.936;27.540;2022-09-09T04:58:56;100039.81;;;7.47;86.19
54361;BME280;40258;53.936;27.540;2022-09-09T05:01:34;100035.19;;;7.52;85.51
54361;BME280;40258;53.936;27.540;2022-09-09T05:04:05;100031.22;;;7.40;85.86
54361;BME280;40258;53.936;27.540;2022-09-09T05:06:35;100031.44;;;7.48;85.87
54361;BME280;40258;53.936;27.540;2022-09-09T05:09:05;100040.28;;;7.64;85.40
54361;BME280;40258;53.936;27.540;2022-09-09T05:11:34;100041.22;;;7.89;84.44
54361;BME280;40258;53.936;27.540;2022-09-09T05:14:37;100040.00;;;8.05;83.53
54361;BME280;40258;53.936;27.540;2022-09-09T05:17:08;100045.59;;;8.19;82.37
54361;BME280;40258;53.936;27.540;2022-09-09T05:19:38;100049.31;;;8.28;81.86
54361;BME280;40258;53.936;27.540;2022-09-09T05:22:07;100039.88;;;8.26;81.08
54361;BME280;40258;53.936;27.540;2022-09-09T05:24:42;100031.91;;;8.45;80.37
54361;BME280;40258;53.936;27.540;2022-09-09T05:27:11;100035.69;;;8.44;80.54
54361;BME280;40258;53.936;27.540;2022-09-09T05:29:41;100028.56;;;8.53;80.08
54361;BME280;40258;53.936;27.540;2022-09-09T05:32:13;100039.75;;;8.71;79.11
54361;BME280;40258;53.936;27.540;2022-09-09T05:34:43;100032.97;;;8.73;79.06
54361;BME280;40258;53.936;27.540;2022-09-09T05:37:13;100035.59;;;8.54;78.46
54361;BME280;40258;53.936;27.540;2022-09-09T05:39:43;100029.25;;;8.35;80.06
54361;BME280;40258;53.936;27.540;2022-09-09T05:42:12;100036.56;;;8.69;79.55
54361;BME280;40258;53.936;27.540;2022-09-09T05:44:40;100037.19;;;8.85;78.24
54361;BME280;40258;53.936;27.540;2022-09-09T05:47:09;100041.09;;;9.03;77.58
54361;BME280;40258;53.936;27.540;2022-09-09T05:49:40;100041.31;;;9.30;75.88
54361;BME280;40258;53.936;27.540;2022-09-09T05:52:09;100048.78;;;9.39;75.30
54361;BME280;40258;53.936;27.540;2022-09-09T05:54:37;100046.69;;;9.54;74.60
54361;BME280;40258;53.936;27.540;2022-09-09T05:57:07;100047.94;;;9.62;74.24
54361;BME280;40258;53.936;27.540;2022-09-09T05:59:36;100050.53;;;9.73;73.62
54361;BME280;40258;53.936;27.540;2022-09-09T06:02:05;100049.56;;;9.82;73.33
54361;BME280;40258;53.936;27.540;2022-09-09T06:04:36;100043.69;;;9.75;72.94
54361;BME280;40258;53.936;27.540;2022-09-09T06:07:07;100052.78;;;9.65;73.29
54361;BME280;40258;53.936;27.540;2022-09-09T06:09:36;100051.09;;;9.69;73.73
54361;BME280;40258;53.936;27.540;2022-09-09T06:12:08;100059.66;;;9.77;72.98
54361;BME280;40258;53.936;27.540;2022-09-09T06:14:37;100058.34;;;9.93;72.60
54361;BME280;40258;53.936;27.540;2022-09-09T06:17:05;100060.91;;;9.84;72.86
54361;BME280;40258;53.936;27.540;2022-09-09T06:19:34;100057.47;;;10.17;71.47
54361;BME280;40258;53.936;27.540;2022-09-09T06:22:03;100047.44;;;10.36;70.25
54361;BME280;40258;53.936;27.540;2022-09-09T06:24:36;100062.69;;;10.65;69.65
54361;BME280;40258;53.936;27.540;2022-09-09T06:27:07;100066.16;;;10.52;68.86
54361;BME280;40258;53.936;27.540;2022-09-09T06:29:37;100072.25;;;10.76;69.00
54361;BME280;40258;53.936;27.540;2022-09-09T06:32:05;100076.00;;;10.94;67.71
54361;BME280;40258;53.936;27.540;2022-09-09T06:34:36;100080.66;;;11.22;66.14
54361;BME280;40258;53.936;27.540;2022-09-09T06:37:04;100074.84;;;11.28;66.00
54361;BME280;40258;53.936;27.540;2022-09-09T06:39:40;100081.66;;;11.12;65.49
54361;BME280;40258;53.936;27.540;2022-09-09T06:42:09;100075.63;;;11.43;65.53
54361;BME280;40258;53.936;27.540;2022-09-09T06:44:55;100079.22;;;11.66;63.86
54361;BME280;40258;53.936;27.540;2022-09-09T06:47:44;100084.25;;;11.59;63.34
54361;BME280;40258;53.936;27.540;2022-09-09T06:50:12;100085.47;;;11.52;63.68
54361;BME280;40258;53.936;27.540;2022-09-09T06:52:41;100086.09;;;11.49;63.34
54361;BME280;40258;53.936;27.540;2022-09-09T06:55:12;100077.63;;;11.23;65.00
54361;BME280;40258;53.936;27.540;2022-09-09T06:57:44;100066.63;;;11.70;63.21
54361;BME280;40258;53.936;27.540;2022-09-09T07:00:17;100069.13;;;11.94;63.22
54361;BME280;40258;53.936;27.540;2022-09-09T07:02:46;100061.06;;;12.03;61.21
54361;BME280;40258;53.936;27.540;2022-09-09T07:05:15;100055.41;;;11.99;60.94
54361;BME280;40258;53.936;27.540;2022-09-09T07:07:45;100072.00;;;12.34;61.08
54361;BME280;40258;53.936;27.540;2022-09-09T07:10:19;100070.50;;;12.51;59.98
54361;BME280;40258;53.936;27.540;2022-09-09T07:12:51;100079.97;;;12.53;59.81
54361;BME280;40258;53.936;27.540;2022-09-09T07:15:21;100066.59;;;12.66;58.90
54361;BME280;40258;53.936;27.540;2022-09-09T07:17:50;100070.59;;;12.68;59.45
54361;BME280;40258;53.936;27.540;2022-09-09T07:20:21;100071.94;;;12.48;59.49
54361;BME280;40258;53.936;27.540;2022-09-09T07:22:54;100078.13;;;12.17;59.86
54361;BME280;40258;53.936;27.540;2022-09-09T07:25:25;100077.88;;;12.28;60.28
54361;BME280;40258;53.936;27.540;2022-09-09T07:27:55;100082.91;;;12.34;59.76
54361;BME280;40258;53.936;27.540;2022-09-09T07:30:24;100071.63;;;12.27;59.64
54361;BME280;40258;53.936;27.540;2022-09-09T07:32:53;100069.34;;;12.43;59.50
54361;BME280;40258;53.936;27.540;2022-09-09T07:35:24;100066.47;;;12.71;58.95
54361;BME280;40258;53.936;27.540;2022-09-09T07:37:54;100068.78;;;13.18;56.68
54361;BME280;40258;53.936;27.540;2022-09-09T07:40:25;100066.63;;;13.37;56.72
54361;BME280;40258;53.936;27.540;2022-09-09T07:42:53;100061.59;;;13.79;55.21
54361;BME280;40258;53.936;27.540;2022-09-09T07:45:22;100065.59;;;14.08;54.06
54361;BME280;40258;53.936;27.540;2022-09-09T07:47:51;100071.53;;;14.19;53.84
54361;BME280;40258;53.936;27.540;2022-09-09T07:50:20;100063.81;;;14.56;53.47
54361;BME280;40258;53.936;27.540;2022-09-09T07:52:51;100071.06;;;14.43;52.43
54361;BME280;40258;53.936;27.540;2022-09-09T07:55:21;100061.56;;;14.32;52.18
54361;BME280;40258;53.936;27.540;2022-09-09T07:57:55;100062.38;;;13.97;52.41
54361;BME280;40258;53.936;27.540;2022-09-09T08:00:24;100061.44;;;14.28;52.61
54361;BME280;40258;53.936;27.540;2022-09-09T08:02:57;100071.50;;;14.71;51.44
54361;BME280;40258;53.936;27.540;2022-09-09T08:05:27;100056.16;;;14.97;50.42
54361;BME280;40258;53.936;27.540;2022-09-09T08:07:56;100058.63;;;14.81;50.58
54361;BME280;40258;53.936;27.540;2022-09-09T08:10:24;100065.16;;;14.15;51.30
54361;BME280;40258;53.936;27.540;2022-09-09T08:12:56;100054.19;;;13.80;53.29
54361;BME280;40258;53.936;27.540;2022-09-09T08:15:25;100063.81;;;13.69;52.73
54361;BME280;40258;53.936;27.540;2022-09-09T08:17:54;100053.09;;;13.81;52.32
54361;BME280;40258;53.936;27.540;2022-09-09T08:20:24;100048.44;;;14.08;52.04
54361;BME280;40258;53.936;27.540;2022-09-09T08:22:52;100052.09;;;14.38;51.30
54361;BME280;40258;53.936;27.540;2022-09-09T08:25:20;100051.16;;;14.60;50.08
54361;BME280;40258;53.936;27.540;2022-09-09T08:27:49;100042.41;;;14.58;50.24
54361;BME280;40258;53.936;27.540;2022-09-09T08:30:19;100041.47;;;14.54;50.31
54361;BME280;40258;53.936;27.540;2022-09-09T08:32:49;100053.22;;;14.63;50.39
54361;BME280;40258;53.936;27.540;2022-09-09T08:35:18;100049.19;;;14.52;50.63
54361;BME280;40258;53.936;27.540;2022-09-09T08:37:48;100046.94;;;14.63;50.25
54361;BME280;40258;53.936;27.540;2022-09-09T08:40:29;100039.75;;;14.14;50.22
54361;BME280;40258;53.936;27.540;2022-09-09T08:43:02;100046.19;;;13.75;51.54
54361;BME280;40258;53.936;27.540;2022-09-09T08:45:37;100035.88;;;13.54;51.39
54361;BME280;40258;53.936;27.540;2022-09-09T08:48:32;100041.50;;;13.75;51.31
54361;BME280;40258;53.936;27.540;2022-09-09T08:51:06;100030.44;;;14.42;50.14
54361;BME280;40258;53.936;27.540;2022-09-09T08:53:41;100055.00;;;14.42;47.97
54361;BME280;40258;53.936;27.540;2022-09-09T08:56:16;100046.47;;;14.34;48.35
54361;BME280;40258;53.936;27.540;2022-09-09T08:58:51;100063.50;;;14.66;46.47
54361;BME280;40258;53.936;27.540;2022-09-09T09:02:03;100033.72;;;15.21;46.79
54361;BME280;40258;53.936;27.540;2022-09-09T09:05:02;100038.84;;;15.52;45.48
54361;BME280;40258;53.936;27.540;2022-09-09T09:07:46;100036.53;;;15.63;46.13
54361;BME280;40258;53.936;27.540;2022-09-09T09:10:37;100040.09;;;15.55;44.17
54361;BME280;40258;53.936;27.540;2022-09-09T09:13:14;100022.84;;;15.63;44.53
54361;BME280;40258;53.936;27.540;2022-09-09T09:15:48;100022.31;;;15.91;43.94
54361;BME280;40258;53.936;27.540;2022-09-09T09:18:20;100023.09;;;16.33;43.24
54361;BME280;40258;53.936;27.540;2022-09-09T09:20:58;100023.47;;;16.44;42.88
54361;BME280;40258;53.936;27.540;2022-09-09T09:23:42;100013.47;;;16.27;43.13
54361;BME280;40258;53.936;27.540;2022-09-09T09:26:11;100010.47;;;16.53;42.21
54361;BME280;40258;53.936;27.540;2022-09-09T09:28:41;100011.69;;;16.44;41.12
54361;BME280;40258;53.936;27.540;2022-09-09T09:31:16;100011.69;;;16.44;41.49
54361;BME280;40258;53.936;27.540;2022-09-09T09:33:51;100008.06;;;16.52;42.00
54361;BME280;40258;53.936;27.540;2022-09-09T09:36:32;99995.50;;;16.05;42.90
54361;BME280;40258;53.936;27.540;2022-09-09T09:39:03;99997.06;;;15.64;43.59
54361;BME280;40258;53.936;27.540;2022-09-09T09:41:36;99994.81;;;15.45;44.19
54361;BME280;40258;53.936;27.540;2022-09-09T09:44:23;99989.63;;;15.52;43.30
54361;BME280;40258;53.936;27.540;2022-09-09T09:46:53;100000.28;;;15.66;44.21
54361;BME280;40258;53.936;27.540;2022-09-09T09:49:23;99990.03;;;16.05;43.47
54361;BME280;40258;53.936;27.540;2022-09-09T09:51:51;99990.56;;;16.32;42.60
54361;BME280;40258;53.936;27.540;2022-09-09T09:54:28;99983.75;;;16.50;42.44
54361;BME280;40258;53.936;27.540;2022-09-09T09:57:10;99994.72;;;15.84;42.40
54361;BME280;40258;53.936;27.540;2022-09-09T09:59:41;99995.75;;;15.70;42.60
54361;BME280;40258;53.936;27.540;2022-09-09T10:02:19;100004.16;;;15.65;42.96
54361;BME280;40258;53.936;27.540;2022-09-09T10:05:08;99996.41;;;15.67;42.98
54361;BME280;40258;53.936;27.540;2022-09-09T10:07:43;99998.72;;;15.35;43.22
54361;BME280;40258;53.936;27.540;2022-09-09T10:10:19;99989.63;;;15.52;43.13
54361;BME280;40258;53.936;27.540;2022-09-09T10:12:55;100002.94;;;15.75;43.01
54361;BME280;40258;53.936;27.540;2022-09-09T10:15:38;100005.44;;;15.89;42.15
54361;BME280;40258;53.936;27.540;2022-09-09T10:18:45;99991.88;;;15.71;41.32
54361;BME280;40258;53.936;27.540;2022-09-09T10:21:52;99999.72;;;15.52;42.45
54361;BME280;40258;53.936;27.540;2022-09-09T10:27:48;99995.50;;;15.63;42.17
54361;BME280;40258;53.936;27.540;2022-09-09T10:30:26;100002.41;;;16.24;41.37
54361;BME280;40258;53.936;27.540;2022-09-09T10:33:08;100002.72;;;16.56;41.21
54361;BME280;40258;53.936;27.540;2022-09-09T10:35:46;99992.19;;;16.45;40.91
54361;BME280;40258;53.936;27.540;2022-09-09T10:38:23;100006.66;;;16.33;41.00
54361;BME280;40258;53.936;27.540;2022-09-09T10:41:16;100001.75;;;16.06;41.04
54361;BME280;40258;53.936;27.540;2022-09-09T10:44:23;99999.34;;;15.62;41.76
54361;BME280;40258;53.936;27.540;2022-09-09T10:47:28;99998.41;;;15.58;41.10
54361;BME280;40258;53.936;27.540;2022-09-09T10:50:29;99994.97;;;15.91;40.48
54361;BME280;40258;53.936;27.540;2022-09-09T10:53:14;100000.06;;;15.80;40.22
54361;BME280;40258;53.936;27.540;2022-09-09T10:55:51;99996.16;;;16.02;40.26
54361;BME280;40258;53.936;27.540;2022-09-09T10:58:26;100012.19;;;15.91;40.22
54361;BME280;40258;53.936;27.540;2022-09-09T11:01:01;100006.78;;;16.04;39.93
54361;BME280;40258;53.936;27.540;2022-09-09T11:03:32;100007.19;;;15.93;39.40
54361;BME280;40258;53.936;27.540;2022-09-09T11:06:05;100012.75;;;16.18;39.14
54361;BME280;40258;53.936;27.540;2022-09-09T11:08:38;100001.47;;;16.20;38.30
54361;BME280;40258;53.936;27.540;2022-09-09T11:11:14;99999.56;;;16.78;38.87
54361;BME280;40258;53.936;27.540;2022-09-09T11:13:49;100004.69;;;16.67;38.34
54361;BME280;40258;53.936;27.540;2022-09-09T11:16:27;100003.50;;;17.02;37.88
54361;BME280;40258;53.936;27.540;2022-09-09T11:19:03;100000.94;;;17.21;37.92
54361;BME280;40258;53.936;27.540;2022-09-09T11:21:37;99994.31;;;16.85;37.19
54361;BME280;40258;53.936;27.540;2022-09-09T11:24:15;99998.97;;;16.60;38.16
54361;BME280;40258;53.936;27.540;2022-09-09T11:26:51;100004.88;;;16.16;38.16
54361;BME280;40258;53.936;27.540;2022-09-09T11:30:12;100000.44;;;15.91;38.51
54361;BME280;40258;53.936;27.540;2022-09-09T11:33:15;99999.97;;;15.89;38.97
54361;BME280;40258;53.936;27.540;2022-09-09T11:36:05;99995.38;;;15.80;39.30
54361;BME280;40258;53.936;27.540;2022-09-09T11:38:44;99988.81;;;15.94;38.94
54361;BME280;40258;53.936;27.540;2022-09-09T11:41:14;99982.56;;;15.72;39.13
54361;BME280;40258;53.936;27.540;2022-09-09T11:43:47;99974.59;;;16.34;39.31
54361;BME280;40258;53.936;27.540;2022-09-09T11:46:19;99971.59;;;16.85;37.91
54361;BME280;40258;53.936;27.540;2022-09-09T11:49:01;99971.59;;;17.22;37.12
54361;BME280;40258;53.936;27.540;2022-09-09T11:51:32;99971.09;;;17.45;36.28
54361;BME280;40258;53.936;27.540;2022-09-09T11:56:48;99967.09;;;17.42;36.24
54361;BME280;40258;53.936;27.540;2022-09-09T11:59:23;99968.78;;;17.47;36.11
54361;BME280;40258;53.936;27.540;2022-09-09T12:01:56;99966.63;;;17.52;36.46
54361;BME280;40258;53.936;27.540;2022-09-09T12:04:36;99955.94;;;17.10;36.41
54361;BME280;40258;53.936;27.540;2022-09-09T12:07:32;99960.28;;;17.23;37.04
54361;BME280;40258;53.936;27.540;2022-09-09T12:10:19;99960.47;;;16.57;37.39
54361;BME280;40258;53.936;27.540;2022-09-09T12:12:49;99960.47;;;16.57;37.63
54361;BME280;40258;53.936;27.540;2022-09-09T12:15:26;99959.00;;;16.84;37.60
54361;BME280;40258;53.936;27.540;2022-09-09T12:17:57;99950.69;;;17.17;36.80
54361;BME280;40258;53.936;27.540;2022-09-09T12:20:34;99959.78;;;17.34;36.32
54361;BME280;40258;53.936;27.540;2022-09-09T12:23:22;99963.31;;;17.47;35.70
54361;BME280;40258;53.936;27.540;2022-09-09T12:26:03;99965.09;;;17.14;36.44
54361;BME280;40258;53.936;27.540;2022-09-09T12:28:47;99963.59;;;17.17;36.28
54361;BME280;40258;53.936;27.540;2022-09-09T12:31:25;99974.13;;;16.90;36.45
54361;BME280;40258;53.936;27.540;2022-09-09T12:34:02;99965.09;;;17.02;36.85
54361;BME280;40258;53.936;27.540;2022-09-09T12:36:33;99955.28;;;16.88;36.74
54361;BME280;40258;53.936;27.540;2022-09-09T12:39:15;99953.84;;;16.70;36.35
54361;BME280;40258;53.936;27.540;2022-09-09T12:41:52;99964.84;;;17.19;36.50
54361;BME280;40258;53.936;27.540;2022-09-09T12:44:25;99972.25;;;17.84;35.35
54361;BME280;40258;53.936;27.540;2022-09-09T12:47:00;99952.69;;;18.14;33.34
54361;BME280;40258;53.936;27.540;2022-09-09T12:49:32;99953.78;;;18.25;32.71
54361;BME280;40258;53.936;27.540;2022-09-09T12:52:06;99963.72;;;18.46;32.68
54361;BME280;40258;53.936;27.540;2022-09-09T12:54:37;99963.81;;;18.65;32.23
54361;BME280;40258;53.936;27.540;2022-09-09T12:57:12;99958.06;;;18.71;32.34
54361;BME280;40258;53.936;27.540;2022-09-09T12:59:43;99959.13;;;18.50;33.06
54361;BME280;40258;53.936;27.540;2022-09-09T13:02:25;99951.28;;;18.20;33.95
54361;BME280;40258;53.936;27.540;2022-09-09T13:04:54;99942.28;;;18.52;34.60
54361;BME280;40258;53.936;27.540;2022-09-09T13:07:34;99954.88;;;18.68;33.50
54361;BME280;40258;53.936;27.540;2022-09-09T13:10:03;99946.53;;;18.81;33.05
54361;BME280;40258;53.936;27.540;2022-09-09T13:12:33;99950.41;;;18.80;32.80
54361;BME280;40258;53.936;27.540;2022-09-09T13:15:01;99942.59;;;18.82;32.19
54361;BME280;40258;53.936;27.540;2022-09-09T13:17:31;99930.94;;;18.85;32.55
54361;BME280;40258;53.936;27.540;2022-09-09T13:20:00;99930.34;;;19.11;32.88
54361;BME280;40258;53.936;27.540;2022-09-09T13:22:33;99932.88;;;18.68;33.31
54361;BME280;40258;53.936;27.540;2022-09-09T13:25:17;99922.47;;;18.62;33.82
54361;BME280;40258;53.936;27.540;2022-09-09T13:27:58;99924.97;;;18.35;34.06
54361;BME280;40258;53.936;27.540;2022-09-09T13:30:30;99924.66;;;17.92;34.32
54361;BME280;40258;53.936;27.540;2022-09-09T13:33:19;99913.06;;;17.99;34.63